sensor_id;sensor_type;location;lat;lon;timestamp;temperature;humidity
463;DHT22;218;51.902;9.542;2022-07-29T00:00:28;22.30;1.00
463;DHT22;218;51.902;9.542;2022-07-29T00:02:55;22.20;1.00
463;DHT22;218;51.902;9.542;2022-07-29T00:05:23;22.20;1.00
463;DHT22;218;51.902;9.542;2022-07-29T00:07:50;22.20;1.00
463;DHT22;218;51.902;9.542;2022-07-29T00:10:17;22.20;1.00
463;DHT22;218;51.902;9.542;2022-07-29T00:12:44;22.10;1.00
463;DHT22;218;51.902;9.542;2022-07-29T00:15:13;22.10;1.00
463;DHT22;218;51.902;9.542;2022-07-29T00:17:40;22.10;1.00
463;DHT22;218;51.902;9.542;2022-07-29T00:20:08;22.10;1.00
463;DHT22;218;51.902;9.542;2022-07-29T00:22:37;22.00;1.00
463;DHT22;218;51.902;9.542;2022-07-29T00:25:05;22.00;1.00
463;DHT22;218;51.902;9.542;2022-07-29T00:27:32;22.00;1.00
463;DHT22;218;51.902;9.542;2022-07-29T00:29:59;22.00;1.00
463;DHT22;218;51.902;9.542;2022-07-29T00:32:28;21.90;1.00
463;DHT22;218;51.902;9.542;2022-07-29T00:34:55;21.90;1.00
463;DHT22;218;51.902;9.542;2022-07-29T00:37:40;21.90;1.00
463;DHT22;218;51.902;9.542;2022-07-29T00:40:08;21.80;1.00
463;DHT22;218;51.902;9.542;2022-07-29T00:42:42;21.80;1.00
463;DHT22;218;51.902;9.542;2022-07-29T00:45:09;21.80;1.00
463;DHT22;218;51.902;9.542;2022-07-29T00:47:38;21.80;1.00
463;DHT22;218;51.902;9.542;2022-07-29T00:50:07;21.70;1.00
463;DHT22;218;51.902;9.542;2022-07-29T00:52:43;21.70;1.00
463;DHT22;218;51.902;9.542;2022-07-29T00:55:13;21.70;1.00
463;DHT22;218;51.902;9.542;2022-07-29T00:57:42;21.70;1.00
463;DHT22;218;51.902;9.542;2022-07-29T01:00:11;21.60;1.00
463;DHT22;218;51.902;9.542;2022-07-29T01:02:40;21.60;1.00
463;DHT22;218;51.902;9.542;2022-07-29T01:05:08;21.60;1.00
463;DHT22;218;51.902;9.542;2022-07-29T01:07:36;21.50;1.00
463;DHT22;218;51.902;9.542;2022-07-29T01:10:05;21.50;1.00
463;DHT22;218;51.902;9.542;2022-07-29T01:12:34;21.50;1.00
463;DHT22;218;51.902;9.542;2022-07-29T01:15:04;21.40;1.00
463;DHT22;218;51.902;9.542;2022-07-29T01:17:35;21.40;1.00
463;DHT22;218;51.902;9.542;2022-07-29T01:20:10;21.40;1.00
463;DHT22;218;51.902;9.542;2022-07-29T01:22:59;21.30;1.00
463;DHT22;218;51.902;9.542;2022-07-29T01:25:48;21.20;1.00
463;DHT22;218;51.902;9.542;2022-07-29T01:28:54;21.20;1.00
463;DHT22;218;51.902;9.542;2022-07-29T01:31:28;21.20;1.00
463;DHT22;218;51.902;9.542;2022-07-29T01:34:02;21.10;1.00
463;DHT22;218;51.902;9.542;2022-07-29T01:36:33;21.10;1.00
463;DHT22;218;51.902;9.542;2022-07-29T01:39:06;21.00;1.00
463;DHT22;218;51.902;9.542;2022-07-29T01:41:36;21.00;1.00
463;DHT22;218;51.902;9.542;2022-07-29T01:44:11;21.00;1.00
463;DHT22;218;51.902;9.542;2022-07-29T01:46:48;20.90;1.00
463;DHT22;218;51.902;9.542;2022-07-29T01:49:20;20.90;1.00
463;DHT22;218;51.902;9.542;2022-07-29T01:51:50;20.90;1.00
463;DHT22;218;51.902;9.542;2022-07-29T01:54:21;20.80;1.00
463;DHT22;218;51.902;9.542;2022-07-29T01:56:53;20.80;1.00
463;DHT22;218;51.902;9.542;2022-07-29T01:59:23;20.70;1.00
463;DHT22;218;51.902;9.542;2022-07-29T02:01:53;20.70;1.00
463;DHT22;218;51.902;9.542;2022-07-29T02:04:21;20.70;1.00
463;DHT22;218;51.902;9.542;2022-07-29T02:06:51;20.60;1.00
463;DHT22;218;51.902;9.542;2022-07-29T02:09:21;20.60;1.00
463;DHT22;218;51.902;9.542;2022-07-29T02:11:52;20.60;1.00
463;DHT22;218;51.902;9.542;2022-07-29T02:14:22;20.60;1.00
463;DHT22;218;51.902;9.542;2022-07-29T02:16:52;20.50;1.00
463;DHT22;218;51.902;9.542;2022-07-29T02:19:22;20.50;1.00
463;DHT22;218;51.902;9.542;2022-07-29T02:21:51;20.50;1.00
463;DHT22;218;51.902;9.542;2022-07-29T02:24:21;20.50;1.00
463;DHT22;218;51.902;9.542;2022-07-29T02:26:50;20.50;1.00
463;DHT22;218;51.902;9.542;2022-07-29T02:29:22;20.40;1.00
463;DHT22;218;51.902;9.542;2022-07-29T02:31:50;20.40;1.00
463;DHT22;218;51.902;9.542;2022-07-29T02:34:20;20.40;1.00
463;DHT22;218;51.902;9.542;2022-07-29T02:36:48;20.40;1.00
463;DHT22;218;51.902;9.542;2022-07-29T02:39:17;20.30;1.00
463;DHT22;218;51.902;9.542;2022-07-29T02:41:46;20.40;1.00
463;DHT22;218;51.902;9.542;2022-07-29T02:44:15;20.30;1.00
463;DHT22;218;51.902;9.542;2022-07-29T02:46:48;20.30;1.00
463;DHT22;218;51.902;9.542;2022-07-29T02:49:25;20.30;1.00
463;DHT22;218;51.902;9.542;2022-07-29T02:51:59;20.30;1.00
463;DHT22;218;51.902;9.542;2022-07-29T02:54:31;20.30;1.00
463;DHT22;218;51.902;9.542;2022-07-29T02:57:06;20.30;1.00
463;DHT22;218;51.902;9.542;2022-07-29T02:59:37;20.30;1.00
463;DHT22;218;51.902;9.542;2022-07-29T03:02:07;20.30;1.00
463;DHT22;218;51.902;9.542;2022-07-29T03:04:36;20.20;1.00
463;DHT22;218;51.902;9.542;2022-07-29T03:07:05;20.20;1.00
463;DHT22;218;51.902;9.542;2022-07-29T03:09:33;20.10;1.00
463;DHT22;218;51.902;9.542;2022-07-29T03:12:01;20.10;1.00
463;DHT22;218;51.902;9.542;2022-07-29T03:14:28;20.10;1.00
463;DHT22;218;51.902;9.542;2022-07-29T03:16:57;20.10;1.00
463;DHT22;218;51.902;9.542;2022-07-29T03:19:26;20.10;1.00
463;DHT22;218;51.902;9.542;2022-07-29T03:21:56;20.10;1.00
463;DHT22;218;51.902;9.542;2022-07-29T03:24:31;20.10;1.00
463;DHT22;218;51.902;9.542;2022-07-29T03:26:59;20.10;1.00
463;DHT22;218;51.902;9.542;2022-07-29T03:29:26;20.10;1.00
463;DHT22;218;51.902;9.542;2022-07-29T03:31:54;20.10;1.00
463;DHT22;218;51.902;9.542;2022-07-29T03:34:21;20.10;1.00
463;DHT22;218;51.902;9.542;2022-07-29T03:36:50;20.10;1.00
463;DHT22;218;51.902;9.542;2022-07-29T03:39:19;20.10;1.00
463;DHT22;218;51.902;9.542;2022-07-29T03:41:49;20.10;1.00
463;DHT22;218;51.902;9.542;2022-07-29T03:44:17;20.00;1.00
463;DHT22;218;51.902;9.542;2022-07-29T03:46:48;20.00;1.00
463;DHT22;218;51.902;9.542;2022-07-29T03:49:16;20.00;1.00
463;DHT22;218;51.902;9.542;2022-07-29T03:51:46;20.00;1.00
463;DHT22;218;51.902;9.542;2022-07-29T03:54:15;20.00;1.00
463;DHT22;218;51.902;9.542;2022-07-29T03:56:45;20.00;1.00
463;DHT22;218;51.902;9.542;2022-07-29T03:59:14;20.00;1.00
463;DHT22;218;51.902;9.542;2022-07-29T04:01:42;19.90;1.00
463;DHT22;218;51.902;9.542;2022-07-29T04:04:10;19.90;1.00
463;DHT22;218;51.902;9.542;2022-07-29T04:06:39;19.80;1.00
463;DHT22;218;51.902;9.542;2022-07-29T04:09:06;19.80;1.00
463;DHT22;218;51.902;9.542;2022-07-29T04:11:36;19.80;1.00
463;DHT22;218;51.902;9.542;2022-07-29T04:14:04;19.80;1.00
463;DHT22;218;51.902;9.542;2022-07-29T04:16:32;19.80;1.00
463;DHT22;218;51.902;9.542;2022-07-29T04:18:59;19.80;1.00
463;DHT22;218;51.902;9.542;2022-07-29T04:21:26;19.80;1.00
463;DHT22;218;51.902;9.542;2022-07-29T04:23:54;19.80;1.00
463;DHT22;218;51.902;9.542;2022-07-29T04:26:21;19.70;1.00
463;DHT22;218;51.902;9.542;2022-07-29T04:28:49;19.70;1.00
463;DHT22;218;51.902;9.542;2022-07-29T04:31:16;19.70;1.00
463;DHT22;218;51.902;9.542;2022-07-29T04:33:43;19.70;1.00
463;DHT22;218;51.902;9.542;2022-07-29T04:36:10;19.70;1.00
463;DHT22;218;51.902;9.542;2022-07-29T04:38:40;19.60;1.00
463;DHT22;218;51.902;9.542;2022-07-29T04:41:07;19.60;1.00
463;DHT22;218;51.902;9.542;2022-07-29T04:43:34;19.60;1.00
463;DHT22;218;51.902;9.542;2022-07-29T04:46:03;19.60;1.00
463;DHT22;218;51.902;9.542;2022-07-29T04:48:30;19.60;1.00
463;DHT22;218;51.902;9.542;2022-07-29T04:50:57;19.60;1.00
463;DHT22;218;51.902;9.542;2022-07-29T04:53:25;19.60;1.00
463;DHT22;218;51.902;9.542;2022-07-29T04:55:52;19.60;1.00
463;DHT22;218;51.902;9.542;2022-07-29T04:58:19;19.60;1.00
463;DHT22;218;51.902;9.542;2022-07-29T05:00:49;19.50;1.00
463;DHT22;218;51.902;9.542;2022-07-29T05:03:18;19.50;1.00
463;DHT22;218;51.902;9.542;2022-07-29T05:05:45;19.50;1.00
463;DHT22;218;51.902;9.542;2022-07-29T05:08:12;19.50;1.00
463;DHT22;218;51.902;9.542;2022-07-29T05:10:39;19.50;1.00
463;DHT22;218;51.902;9.542;2022-07-29T05:13:07;19.50;1.00
463;DHT22;218;51.902;9.542;2022-07-29T05:15:35;19.50;1.00
463;DHT22;218;51.902;9.542;2022-07-29T05:18:03;19.50;1.00
463;DHT22;218;51.902;9.542;2022-07-29T05:20:31;19.60;1.00
463;DHT22;218;51.902;9.542;2022-07-29T05:23:00;19.60;1.00
463;DHT22;218;51.902;9.542;2022-07-29T05:25:29;19.60;1.00
463;DHT22;218;51.902;9.542;2022-07-29T05:27:57;19.60;1.00
463;DHT22;218;51.902;9.542;2022-07-29T05:30:24;19.70;1.00
463;DHT22;218;51.902;9.542;2022-07-29T05:32:52;19.70;1.00
463;DHT22;218;51.902;9.542;2022-07-29T05:35:19;19.70;1.00
463;DHT22;218;51.902;9.542;2022-07-29T05:37:48;19.80;1.00
463;DHT22;218;51.902;9.542;2022-07-29T05:40:16;19.80;1.00
463;DHT22;218;51.902;9.542;2022-07-29T05:42:43;19.80;1.00
463;DHT22;218;51.902;9.542;2022-07-29T05:45:10;19.80;1.00
463;DHT22;218;51.902;9.542;2022-07-29T05:47:37;19.80;1.00
463;DHT22;218;51.902;9.542;2022-07-29T05:50:05;19.90;1.00
463;DHT22;218;51.902;9.542;2022-07-29T05:52:33;19.90;1.00
463;DHT22;218;51.902;9.542;2022-07-29T05:55:01;19.90;1.00
463;DHT22;218;51.902;9.542;2022-07-29T05:57:31;20.00;1.00
463;DHT22;218;51.902;9.542;2022-07-29T05:59:58;20.00;1.00
463;DHT22;218;51.902;9.542;2022-07-29T06:02:25;20.00;1.00
463;DHT22;218;51.902;9.542;2022-07-29T06:04:52;20.00;1.00
463;DHT22;218;51.902;9.542;2022-07-29T06:07:19;20.10;1.00
463;DHT22;218;51.902;9.542;2022-07-29T06:09:46;20.10;1.00
463;DHT22;218;51.902;9.542;2022-07-29T06:12:15;20.10;1.00
463;DHT22;218;51.902;9.542;2022-07-29T06:14:42;20.20;1.00
463;DHT22;218;51.902;9.542;2022-07-29T06:17:09;20.20;1.00
463;DHT22;218;51.902;9.542;2022-07-29T06:19:37;20.30;1.00
463;DHT22;218;51.902;9.542;2022-07-29T06:22:04;20.30;1.00
463;DHT22;218;51.902;9.542;2022-07-29T06:24:31;20.40;1.00
463;DHT22;218;51.902;9.542;2022-07-29T06:26:58;20.40;1.00
463;DHT22;218;51.902;9.542;2022-07-29T06:29:27;20.50;1.00
463;DHT22;218;51.902;9.542;2022-07-29T06:31:54;20.50;1.00
463;DHT22;218;51.902;9.542;2022-07-29T06:34:21;20.60;1.00
463;DHT22;218;51.902;9.542;2022-07-29T06:36:48;20.60;1.00
463;DHT22;218;51.902;9.542;2022-07-29T06:39:16;20.70;1.00
463;DHT22;218;51.902;9.542;2022-07-29T06:41:46;20.80;1.00
463;DHT22;218;51.902;9.542;2022-07-29T06:44:14;20.90;1.00
463;DHT22;218;51.902;9.542;2022-07-29T06:46:43;20.90;1.00
463;DHT22;218;51.902;9.542;2022-07-29T06:49:10;21.00;1.00
463;DHT22;218;51.902;9.542;2022-07-29T06:51:38;21.10;1.00
463;DHT22;218;51.902;9.542;2022-07-29T06:54:05;21.10;1.00
463;DHT22;218;51.902;9.542;2022-07-29T06:56:34;21.20;1.00
463;DHT22;218;51.902;9.542;2022-07-29T06:59:03;21.30;1.00
463;DHT22;218;51.902;9.542;2022-07-29T07:01:30;21.40;1.00
463;DHT22;218;51.902;9.542;2022-07-29T07:03:58;21.50;1.00
463;DHT22;218;51.902;9.542;2022-07-29T07:06:25;21.50;1.00
463;DHT22;218;51.902;9.542;2022-07-29T07:08:53;21.60;1.00
463;DHT22;218;51.902;9.542;2022-07-29T07:11:20;21.60;1.00
463;DHT22;218;51.902;9.542;2022-07-29T07:13:47;21.70;1.00
463;DHT22;218;51.902;9.542;2022-07-29T07:16:16;21.80;1.00
463;DHT22;218;51.902;9.542;2022-07-29T07:18:43;21.80;1.00
463;DHT22;218;51.902;9.542;2022-07-29T07:21:13;21.90;1.00
463;DHT22;218;51.902;9.542;2022-07-29T07:23:40;21.90;1.00
463;DHT22;218;51.902;9.542;2022-07-29T07:26:07;22.00;1.00
463;DHT22;218;51.902;9.542;2022-07-29T07:28:34;22.00;1.00
463;DHT22;218;51.902;9.542;2022-07-29T07:31:01;22.10;1.00
463;DHT22;218;51.902;9.542;2022-07-29T07:33:28;22.10;1.00
463;DHT22;218;51.902;9.542;2022-07-29T07:35:55;22.10;1.00
463;DHT22;218;51.902;9.542;2022-07-29T07:38:24;22.20;1.00
463;DHT22;218;51.902;9.542;2022-07-29T07:40:51;22.20;1.00
463;DHT22;218;51.902;9.542;2022-07-29T07:43:18;22.20;1.00
463;DHT22;218;51.902;9.542;2022-07-29T07:45:45;22.30;1.00
463;DHT22;218;51.902;9.542;2022-07-29T07:48:13;22.30;1.00
463;DHT22;218;51.902;9.542;2022-07-29T07:50:50;22.40;1.00
463;DHT22;218;51.902;9.542;2022-07-29T07:53:17;22.40;1.00
463;DHT22;218;51.902;9.542;2022-07-29T07:55:46;22.40;1.00
463;DHT22;218;51.902;9.542;2022-07-29T07:58:13;22.50;1.00
463;DHT22;218;51.902;9.542;2022-07-29T08:00:40;22.60;1.00
463;DHT22;218;51.902;9.542;2022-07-29T08:03:08;22.60;1.00
463;DHT22;218;51.902;9.542;2022-07-29T08:05:38;22.70;1.00
463;DHT22;218;51.902;9.542;2022-07-29T08:08:08;22.80;1.00
463;DHT22;218;51.902;9.542;2022-07-29T08:10:35;22.90;1.00
463;DHT22;218;51.902;9.542;2022-07-29T08:13:18;23.00;1.00
463;DHT22;218;51.902;9.542;2022-07-29T08:15:46;23.10;1.00
463;DHT22;218;51.902;9.542;2022-07-29T08:18:13;23.20;1.00
463;DHT22;218;51.902;9.542;2022-07-29T08:20:40;23.30;1.00
463;DHT22;218;51.902;9.542;2022-07-29T08:23:08;23.40;1.00
463;DHT22;218;51.902;9.542;2022-07-29T08:25:37;23.50;1.00
463;DHT22;218;51.902;9.542;2022-07-29T08:28:05;23.50;1.00
463;DHT22;218;51.902;9.542;2022-07-29T08:30:34;23.60;1.00
463;DHT22;218;51.902;9.542;2022-07-29T08:33:01;23.70;1.00
463;DHT22;218;51.902;9.542;2022-07-29T08:35:28;23.80;1.00
463;DHT22;218;51.902;9.542;2022-07-29T08:37:56;23.80;1.00
463;DHT22;218;51.902;9.542;2022-07-29T08:40:24;23.90;1.00
463;DHT22;218;51.902;9.542;2022-07-29T08:42:51;23.90;1.00
463;DHT22;218;51.902;9.542;2022-07-29T08:45:18;23.90;1.00
463;DHT22;218;51.902;9.542;2022-07-29T08:47:48;24.00;1.00
463;DHT22;218;51.902;9.542;2022-07-29T08:50:15;24.00;1.00
463;DHT22;218;51.902;9.542;2022-07-29T08:52:42;24.10;1.00
463;DHT22;218;51.902;9.542;2022-07-29T08:55:11;24.10;1.00
463;DHT22;218;51.902;9.542;2022-07-29T08:57:41;24.10;1.00
463;DHT22;218;51.902;9.542;2022-07-29T09:00:09;24.20;1.00
463;DHT22;218;51.902;9.542;2022-07-29T09:02:40;24.20;1.00
463;DHT22;218;51.902;9.542;2022-07-29T09:05:09;24.20;1.00
463;DHT22;218;51.902;9.542;2022-07-29T09:07:39;24.30;1.00
463;DHT22;218;51.902;9.542;2022-07-29T09:10:08;24.30;1.00
463;DHT22;218;51.902;9.542;2022-07-29T09:12:35;24.30;1.00
463;DHT22;218;51.902;9.542;2022-07-29T09:15:03;24.40;1.00
463;DHT22;218;51.902;9.542;2022-07-29T09:17:40;24.40;1.00
463;DHT22;218;51.902;9.542;2022-07-29T09:20:11;24.40;1.00
463;DHT22;218;51.902;9.542;2022-07-29T09:22:40;24.50;1.00
463;DHT22;218;51.902;9.542;2022-07-29T09:25:07;24.50;1.00
463;DHT22;218;51.902;9.542;2022-07-29T09:27:35;24.50;1.00
463;DHT22;218;51.902;9.542;2022-07-29T09:30:04;24.60;1.00
463;DHT22;218;51.902;9.542;2022-07-29T09:32:32;24.60;1.00
463;DHT22;218;51.902;9.542;2022-07-29T09:35:17;24.70;1.00
463;DHT22;218;51.902;9.542;2022-07-29T09:37:45;24.70;1.00
463;DHT22;218;51.902;9.542;2022-07-29T09:40:14;24.80;1.00
463;DHT22;218;51.902;9.542;2022-07-29T09:42:42;24.80;1.00
463;DHT22;218;51.902;9.542;2022-07-29T09:45:10;24.90;1.00
463;DHT22;218;51.902;9.542;2022-07-29T09:47:43;24.90;1.00
463;DHT22;218;51.902;9.542;2022-07-29T09:50:12;25.00;1.00
463;DHT22;218;51.902;9.542;2022-07-29T09:52:47;25.10;1.00
463;DHT22;218;51.902;9.542;2022-07-29T09:55:15;25.10;1.00
463;DHT22;218;51.902;9.542;2022-07-29T09:57:43;25.10;1.00
463;DHT22;218;51.902;9.542;2022-07-29T10:00:12;25.20;1.00
463;DHT22;218;51.902;9.542;2022-07-29T10:02:41;25.20;1.00
463;DHT22;218;51.902;9.542;2022-07-29T10:05:18;25.20;1.00
463;DHT22;218;51.902;9.542;2022-07-29T10:07:49;25.20;1.00
463;DHT22;218;51.902;9.542;2022-07-29T10:10:21;25.30;1.00
463;DHT22;218;51.902;9.542;2022-07-29T10:12:51;25.30;1.00
463;DHT22;218;51.902;9.542;2022-07-29T10:15:18;25.30;1.00
463;DHT22;218;51.902;9.542;2022-07-29T10:17:47;25.30;1.00
463;DHT22;218;51.902;9.542;2022-07-29T10:20:15;25.30;1.00
463;DHT22;218;51.902;9.542;2022-07-29T10:22:43;25.30;1.00
463;DHT22;218;51.902;9.542;2022-07-29T10:25:14;25.30;1.00
463;DHT22;218;51.902;9.542;2022-07-29T10:27:42;25.30;1.00
463;DHT22;218;51.902;9.542;2022-07-29T10:30:13;25.30;1.00
463;DHT22;218;51.902;9.542;2022-07-29T10:32:56;25.30;1.00
463;DHT22;218;51.902;9.542;2022-07-29T10:35:47;25.30;1.00
463;DHT22;218;51.902;9.542;2022-07-29T10:38:34;25.30;1.00
463;DHT22;218;51.902;9.542;2022-07-29T10:41:17;25.30;1.00
463;DHT22;218;51.902;9.542;2022-07-29T10:43:58;25.30;1.00
463;DHT22;218;51.902;9.542;2022-07-29T10:49:27;25.30;1.00
463;DHT22;218;51.902;9.542;2022-07-29T10:52:06;25.30;1.00
463;DHT22;218;51.902;9.542;2022-07-29T10:54:47;25.30;1.00
463;DHT22;218;51.902;9.542;2022-07-29T10:57:23;25.30;1.00
463;DHT22;218;51.902;9.542;2022-07-29T11:02:57;25.30;1.00
463;DHT22;218;51.902;9.542;2022-07-29T11:05:26;25.30;1.00
463;DHT22;218;51.902;9.542;2022-07-29T11:08:20;25.40;1.00
463;DHT22;218;51.902;9.542;2022-07-29T11:10:50;25.40;1.00
463;DHT22;218;51.902;9.542;2022-07-29T11:13:47;25.40;1.00
463;DHT22;218;51.902;9.542;2022-07-29T11:16:16;25.40;1.00
463;DHT22;218;51.902;9.542;2022-07-29T11:21:48;25.50;1.00
463;DHT22;218;51.902;9.542;2022-07-29T11:24:19;25.50;1.00
463;DHT22;218;51.902;9.542;2022-07-29T11:27:09;25.50;1.00
463;DHT22;218;51.902;9.542;2022-07-29T11:29:47;25.50;1.00
463;DHT22;218;51.902;9.542;2022-07-29T11:32:16;25.60;1.00
463;DHT22;218;51.902;9.542;2022-07-29T11:34:46;25.60;1.00
463;DHT22;218;51.902;9.542;2022-07-29T11:37:18;25.70;1.00
463;DHT22;218;51.902;9.542;2022-07-29T11:39:49;25.70;1.00
463;DHT22;218;51.902;9.542;2022-07-29T11:42:50;25.80;1.00
463;DHT22;218;51.902;9.542;2022-07-29T11:45:21;25.90;1.00
463;DHT22;218;51.902;9.542;2022-07-29T11:47:51;26.00;1.00
463;DHT22;218;51.902;9.542;2022-07-29T11:50:29;26.20;1.00
463;DHT22;218;51.902;9.542;2022-07-29T11:52:57;26.40;1.00
463;DHT22;218;51.902;9.542;2022-07-29T11:55:25;26.60;1.00
463;DHT22;218;51.902;9.542;2022-07-29T11:57:54;26.70;1.00
463;DHT22;218;51.902;9.542;2022-07-29T12:00:28;26.90;1.00
463;DHT22;218;51.902;9.542;2022-07-29T12:02:56;27.10;1.00
463;DHT22;218;51.902;9.542;2022-07-29T12:05:35;27.30;1.00
463;DHT22;218;51.902;9.542;2022-07-29T12:08:07;27.50;1.00
463;DHT22;218;51.902;9.542;2022-07-29T12:10:35;27.60;1.00
463;DHT22;218;51.902;9.542;2022-07-29T12:13:02;27.80;1.00
463;DHT22;218;51.902;9.542;2022-07-29T12:15:31;28.00;1.00
463;DHT22;218;51.902;9.542;2022-07-29T12:17:59;28.10;1.00
463;DHT22;218;51.902;9.542;2022-07-29T12:20:35;28.30;1.00
463;DHT22;218;51.902;9.542;2022-07-29T12:23:05;28.40;1.00
463;DHT22;218;51.902;9.542;2022-07-29T12:25:34;28.50;1.00
463;DHT22;218;51.902;9.542;2022-07-29T12:28:04;28.60;1.00
463;DHT22;218;51.902;9.542;2022-07-29T12:30:42;28.70;1.00
463;DHT22;218;51.902;9.542;2022-07-29T12:33:15;28.70;1.00
463;DHT22;218;51.902;9.542;2022-07-29T12:35:44;28.90;1.00
463;DHT22;218;51.902;9.542;2022-07-29T12:38:12;29.00;1.00
463;DHT22;218;51.902;9.542;2022-07-29T12:40:40;29.10;1.00
463;DHT22;218;51.902;9.542;2022-07-29T12:43:12;29.30;1.00
463;DHT22;218;51.902;9.542;2022-07-29T12:45:42;29.50;1.00
463;DHT22;218;51.902;9.542;2022-07-29T12:48:10;29.60;1.00
463;DHT22;218;51.902;9.542;2022-07-29T12:50:52;29.70;1.00
463;DHT22;218;51.902;9.542;2022-07-29T12:53:19;29.80;1.00
463;DHT22;218;51.902;9.542;2022-07-29T12:55:47;29.90;1.00
463;DHT22;218;51.902;9.542;2022-07-29T12:58:27;30.00;1.00
463;DHT22;218;51.902;9.542;2022-07-29T13:01:04;30.10;1.00
463;DHT22;218;51.902;9.542;2022-07-29T13:03:46;30.10;1.00
463;DHT22;218;51.902;9.542;2022-07-29T13:06:38;30.20;1.00
463;DHT22;218;51.902;9.542;2022-07-29T13:09:09;30.20;1.00
463;DHT22;218;51.902;9.542;2022-07-29T13:11:38;30.20;1.00
463;DHT22;218;51.902;9.542;2022-07-29T13:14:07;30.20;1.00
463;DHT22;218;51.902;9.542;2022-07-29T13:16:59;30.20;1.00
463;DHT22;218;51.902;9.542;2022-07-29T13:19:33;30.10;1.00
463;DHT22;218;51.902;9.542;2022-07-29T13:22:01;30.20;1.00
463;DHT22;218;51.902;9.542;2022-07-29T13:24:28;30.20;1.00
463;DHT22;218;51.902;9.542;2022-07-29T13:26:55;30.20;1.00
463;DHT22;218;51.902;9.542;2022-07-29T13:29:23;30.20;1.00
463;DHT22;218;51.902;9.542;2022-07-29T13:31:53;30.20;1.00
463;DHT22;218;51.902;9.542;2022-07-29T13:34:20;30.40;1.00
463;DHT22;218;51.902;9.542;2022-07-29T13:36:49;30.40;1.00
463;DHT22;218;51.902;9.542;2022-07-29T13:39:16;30.50;1.00
463;DHT22;218;51.902;9.542;2022-07-29T13:41:43;30.60;1.00
463;DHT22;218;51.902;9.542;2022-07-29T13:44:10;30.80;1.00
463;DHT22;218;51.902;9.542;2022-07-29T13:46:40;30.80;1.00
463;DHT22;218;51.902;9.542;2022-07-29T13:49:09;30.90;1.00
463;DHT22;218;51.902;9.542;2022-07-29T13:51:36;30.90;1.00
463;DHT22;218;51.902;9.542;2022-07-29T13:54:04;30.90;1.00
463;DHT22;218;51.902;9.542;2022-07-29T13:56:31;31.00;1.00
463;DHT22;218;51.902;9.542;2022-07-29T13:58:58;30.90;1.00
463;DHT22;218;51.902;9.542;2022-07-29T14:01:25;30.90;1.00
463;DHT22;218;51.902;9.542;2022-07-29T14:03:53;30.90;1.00
463;DHT22;218;51.902;9.542;2022-07-29T14:06:24;30.90;1.00
463;DHT22;218;51.902;9.542;2022-07-29T14:08:51;30.90;1.00
463;DHT22;218;51.902;9.542;2022-07-29T14:11:18;30.90;1.00
463;DHT22;218;51.902;9.542;2022-07-29T14:13:45;30.80;1.00
463;DHT22;218;51.902;9.542;2022-07-29T14:16:13;30.90;1.00
463;DHT22;218;51.902;9.542;2022-07-29T14:18:40;30.90;1.00
463;DHT22;218;51.902;9.542;2022-07-29T14:21:08;30.80;1.00
463;DHT22;218;51.902;9.542;2022-07-29T14:23:36;30.80;1.00
463;DHT22;218;51.902;9.542;2022-07-29T14:26:03;30.80;1.00
463;DHT22;218;51.902;9.542;2022-07-29T14:28:31;30.90;1.00
463;DHT22;218;51.902;9.542;2022-07-29T14:30:58;30.90;1.00
463;DHT22;218;51.902;9.542;2022-07-29T14:33:25;31.00;1.00
463;DHT22;218;51.902;9.542;2022-07-29T14:35:52;31.10;1.00
463;DHT22;218;51.902;9.542;2022-07-29T14:38:19;31.10;1.00
463;DHT22;218;51.902;9.542;2022-07-29T14:40:48;31.10;1.00
463;DHT22;218;51.902;9.542;2022-07-29T14:43:15;31.10;1.00
463;DHT22;218;51.902;9.542;2022-07-29T14:45:55;31.10;1.00
463;DHT22;218;51.902;9.542;2022-07-29T14:48:48;31.10;1.00
463;DHT22;218;51.902;9.542;2022-07-29T14:51:15;31.10;1.00
463;DHT22;218;51.902;9.542;2022-07-29T14:53:45;31.00;1.00
463;DHT22;218;51.902;9.542;2022-07-29T14:56:13;31.00;1.00
463;DHT22;218;51.902;9.542;2022-07-29T14:58:40;30.90;1.00
463;DHT22;218;51.902;9.542;2022-07-29T15:01:08;30.80;1.00
463;DHT22;218;51.902;9.542;2022-07-29T15:03:35;30.80;1.00
463;DHT22;218;51.902;9.542;2022-07-29T15:06:02;30.70;1.00
463;DHT22;218;51.902;9.542;2022-07-29T15:08:30;30.70;1.00
463;DHT22;218;51.902;9.542;2022-07-29T15:10:58;30.60;1.00
463;DHT22;218;51.902;9.542;2022-07-29T15:13:27;30.50;1.00
463;DHT22;218;51.902;9.542;2022-07-29T15:15:57;30.50;1.00
463;DHT22;218;51.902;9.542;2022-07-29T15:18:25;30.50;1.00
463;DHT22;218;51.902;9.542;2022-07-29T15:20:56;30.50;1.00
463;DHT22;218;51.902;9.542;2022-07-29T15:23:26;30.40;1.00
463;DHT22;218;51.902;9.542;2022-07-29T15:25:53;30.40;1.00
463;DHT22;218;51.902;9.542;2022-07-29T15:28:20;30.40;1.00
463;DHT22;218;51.902;9.542;2022-07-29T15:30:49;30.40;1.00
463;DHT22;218;51.902;9.542;2022-07-29T15:33:16;30.40;1.00
463;DHT22;218;51.902;9.542;2022-07-29T15:35:43;30.30;1.00
463;DHT22;218;51.902;9.542;2022-07-29T15:38:10;30.30;1.00
463;DHT22;218;51.902;9.542;2022-07-29T15:40:38;30.30;1.00
463;DHT22;218;51.902;9.542;2022-07-29T15:43:10;30.30;1.00
463;DHT22;218;51.902;9.542;2022-07-29T15:45:38;30.40;1.00
463;DHT22;218;51.902;9.542;2022-07-29T15:48:08;30.40;1.00
463;DHT22;218;51.902;9.542;2022-07-29T15:50:36;30.40;1.00
463;DHT22;218;51.902;9.542;2022-07-29T15:53:03;30.40;1.00
463;DHT22;218;51.902;9.542;2022-07-29T15:55:30;30.40;1.00
463;DHT22;218;51.902;9.542;2022-07-29T15:57:57;30.40;1.00
463;DHT22;218;51.902;9.542;2022-07-29T16:00:27;30.40;1.00
463;DHT22;218;51.902;9.542;2022-07-29T16:02:54;30.40;1.00
463;DHT22;218;51.902;9.542;2022-07-29T16:05:23;30.40;1.00
463;DHT22;218;51.902;9.542;2022-07-29T16:07:50;30.40;1.00
463;DHT22;218;51.902;9.542;2022-07-29T16:10:18;30.40;1.00
463;DHT22;218;51.902;9.542;2022-07-29T16:12:45;30.40;1.00
463;DHT22;218;51.902;9.542;2022-07-29T16:15:12;30.30;1.00
463;DHT22;218;51.902;9.542;2022-07-29T16:17:39;30.30;1.00
463;DHT22;218;51.902;9.542;2022-07-29T16:20:13;30.30;1.00
463;DHT22;218;51.902;9.542;2022-07-29T16:22:53;30.20;1.00
463;DHT22;218;51.902;9.542;2022-07-29T16:25:20;30.20;1.00
463;DHT22;218;51.902;9.542;2022-07-29T16:27:47;30.20;1.00
463;DHT22;218;51.902;9.542;2022-07-29T16:30:14;30.20;1.00
463;DHT22;218;51.902;9.542;2022-07-29T16:32:41;30.10;1.00
463;DHT22;218;51.902;9.542;2022-07-29T16:35:08;30.10;1.00
463;DHT22;218;51.902;9.542;2022-07-29T16:37:36;30.00;1.00
463;DHT22;218;51.902;9.542;2022-07-29T16:40:07;30.00;1.00
463;DHT22;218;51.902;9.542;2022-07-29T16:42:34;30.00;1.00
463;DHT22;218;51.902;9.542;2022-07-29T16:45:02;30.00;1.00
463;DHT22;218;51.902;9.542;2022-07-29T16:47:29;30.00;1.00
463;DHT22;218;51.902;9.542;2022-07-29T16:49:57;29.90;1.00
463;DHT22;218;51.902;9.542;2022-07-29T16:52:24;29.90;1.00
463;DHT22;218;51.902;9.542;2022-07-29T16:54:52;29.80;1.00
463;DHT22;218;51.902;9.542;2022-07-29T16:57:29;29.80;1.00
463;DHT22;218;51.902;9.542;2022-07-29T16:59:57;29.80;1.00
463;DHT22;218;51.902;9.542;2022-07-29T17:02:24;29.80;1.00
463;DHT22;218;51.902;9.542;2022-07-29T17:04:51;29.80;1.00
463;DHT22;218;51.902;9.542;2022-07-29T17:07:18;29.70;1.00
463;DHT22;218;51.902;9.542;2022-07-29T17:09:45;29.70;1.00
463;DHT22;218;51.902;9.542;2022-07-29T17:12:12;29.70;1.00
463;DHT22;218;51.902;9.542;2022-07-29T17:14:41;29.60;1.00
463;DHT22;218;51.902;9.542;2022-07-29T17:17:08;29.60;1.00